Terminal Aerodrome Forecast
Issued by NWS

Home | Current Version | Previous Version | Graphics & Text | Print | Product List | Glossary On
Versions: 1 2 3 4 5 6 7 8 9 10 11 12 13 14 15 16 17 18 19 20 21 22 23 24
259
FTUS45 KGGW 240654 AAA
TAFGDV
TAF AMD
KGDV 240654Z 2407/2506 09009KT 3SM -SN OVC004
     FM241200 35006KT P6SM VCSH OVC006
     FM242100 35008KT P6SM BKN022
     FM250300 05011KT P6SM BKN016=

USA.gov is the U.S. government's official web portal to all federal, state and local government web resources and services.